sensor_id;sensor_type;location;lat;lon;timestamp;P1;durP1;ratioP1;P2;durP2;ratioP2
77978;SDS011;67169;50.268;8.694;2023-11-21T00:01:42;4.13;;;2.28;;
77978;SDS011;67169;50.268;8.694;2023-11-21T00:04:09;6.30;;;2.47;;
77978;SDS011;67169;50.268;8.694;2023-11-21T00:06:37;7.18;;;3.20;;
77978;SDS011;67169;50.268;8.694;2023-11-21T00:09:05;5.80;;;2.72;;
77978;SDS011;67169;50.268;8.694;2023-11-21T00:11:33;11.63;;;2.55;;
77978;SDS011;67169;50.268;8.694;2023-11-21T00:14:00;2.38;;;2.00;;
77978;SDS011;67169;50.268;8.694;2023-11-21T00:16:26;5.30;;;2.60;;
77978;SDS011;67169;50.268;8.694;2023-11-21T00:18:53;6.43;;;2.78;;
77978;SDS011;67169;50.268;8.694;2023-11-21T00:21:20;6.28;;;2.60;;
77978;SDS011;67169;50.268;8.694;2023-11-21T00:23:48;4.40;;;2.83;;
77978;SDS011;67169;50.268;8.694;2023-11-21T00:38:26;7.22;;;2.70;;
77978;SDS011;67169;50.268;8.694;2023-11-21T00:40:54;5.28;;;3.45;;
77978;SDS011;67169;50.268;8.694;2023-11-21T00:48:14;3.80;;;2.65;;
77978;SDS011;67169;50.268;8.694;2023-11-21T00:50:40;6.80;;;2.88;;
77978;SDS011;67169;50.268;8.694;2023-11-21T00:53:07;7.25;;;3.78;;
77978;SDS011;67169;50.268;8.694;2023-11-21T00:55:33;6.30;;;2.75;;
77978;SDS011;67169;50.268;8.694;2023-11-21T00:58:02;6.22;;;3.33;;
77978;SDS011;67169;50.268;8.694;2023-11-21T01:00:29;9.27;;;3.80;;
77978;SDS011;67169;50.268;8.694;2023-11-21T01:02:56;7.38;;;3.25;;
77978;SDS011;67169;50.268;8.694;2023-11-21T01:05:23;8.52;;;3.70;;
77978;SDS011;67169;50.268;8.694;2023-11-21T01:07:49;7.50;;;3.38;;
77978;SDS011;67169;50.268;8.694;2023-11-21T01:10:16;8.32;;;3.25;;
77978;SDS011;67169;50.268;8.694;2023-11-21T01:12:43;8.40;;;3.90;;
77978;SDS011;67169;50.268;8.694;2023-11-21T01:15:11;5.40;;;2.92;;
77978;SDS011;67169;50.268;8.694;2023-11-21T01:17:38;6.18;;;3.90;;
77978;SDS011;67169;50.268;8.694;2023-11-21T01:20:06;11.07;;;4.32;;
77978;SDS011;67169;50.268;8.694;2023-11-21T01:22:37;7.75;;;4.18;;
77978;SDS011;67169;50.268;8.694;2023-11-21T01:25:04;8.93;;;3.58;;
77978;SDS011;67169;50.268;8.694;2023-11-21T01:27:32;8.90;;;4.43;;
77978;SDS011;67169;50.268;8.694;2023-11-21T01:29:59;8.25;;;3.53;;
77978;SDS011;67169;50.268;8.694;2023-11-21T01:32:27;5.75;;;3.45;;
77978;SDS011;67169;50.268;8.694;2023-11-21T01:34:54;9.00;;;4.03;;
77978;SDS011;67169;50.268;8.694;2023-11-21T01:37:21;9.63;;;4.13;;
77978;SDS011;67169;50.268;8.694;2023-11-21T01:39:48;7.25;;;3.78;;
77978;SDS011;67169;50.268;8.694;2023-11-21T01:42:15;8.27;;;3.85;;
77978;SDS011;67169;50.268;8.694;2023-11-21T01:44:42;11.68;;;4.40;;
77978;SDS011;67169;50.268;8.694;2023-11-21T01:47:08;8.00;;;4.13;;
77978;SDS011;67169;50.268;8.694;2023-11-21T01:49:36;7.43;;;4.93;;
77978;SDS011;67169;50.268;8.694;2023-11-21T01:52:04;9.63;;;4.07;;
77978;SDS011;67169;50.268;8.694;2023-11-21T01:54:31;7.32;;;3.80;;
77978;SDS011;67169;50.268;8.694;2023-11-21T01:56:58;9.55;;;4.00;;
77978;SDS011;67169;50.268;8.694;2023-11-21T01:59:29;10.73;;;4.68;;
77978;SDS011;67169;50.268;8.694;2023-11-21T02:02:00;13.30;;;3.80;;
77978;SDS011;67169;50.268;8.694;2023-11-21T02:04:26;8.77;;;3.78;;
77978;SDS011;67169;50.268;8.694;2023-11-21T02:06:54;9.60;;;4.30;;
77978;SDS011;67169;50.268;8.694;2023-11-21T02:09:24;14.90;;;4.78;;
77978;SDS011;67169;50.268;8.694;2023-11-21T02:11:52;7.55;;;3.90;;
77978;SDS011;67169;50.268;8.694;2023-11-21T02:14:19;10.27;;;5.20;;
77978;SDS011;67169;50.268;8.694;2023-11-21T02:16:47;7.15;;;4.03;;
77978;SDS011;67169;50.268;8.694;2023-11-21T02:19:15;7.68;;;4.05;;
77978;SDS011;67169;50.268;8.694;2023-11-21T02:21:45;7.80;;;4.18;;
77978;SDS011;67169;50.268;8.694;2023-11-21T02:24:14;7.60;;;3.60;;
77978;SDS011;67169;50.268;8.694;2023-11-21T02:26:42;8.32;;;3.72;;
77978;SDS011;67169;50.268;8.694;2023-11-21T02:29:09;9.45;;;3.72;;
77978;SDS011;67169;50.268;8.694;2023-11-21T02:31:37;11.75;;;4.40;;
77978;SDS011;67169;50.268;8.694;2023-11-21T02:34:12;6.25;;;3.10;;
77978;SDS011;67169;50.268;8.694;2023-11-21T02:36:39;13.35;;;4.80;;
77978;SDS011;67169;50.268;8.694;2023-11-21T02:41:35;10.63;;;4.32;;
77978;SDS011;67169;50.268;8.694;2023-11-21T02:44:02;11.80;;;4.28;;
77978;SDS011;67169;50.268;8.694;2023-11-21T02:46:31;16.02;;;4.60;;
77978;SDS011;67169;50.268;8.694;2023-11-21T02:48:58;11.20;;;4.90;;
77978;SDS011;67169;50.268;8.694;2023-11-21T02:51:25;11.23;;;5.35;;
77978;SDS011;67169;50.268;8.694;2023-11-21T02:53:52;11.13;;;3.97;;
77978;SDS011;67169;50.268;8.694;2023-11-21T02:56:18;8.98;;;4.25;;
77978;SDS011;67169;50.268;8.694;2023-11-21T02:58:46;9.77;;;4.55;;
77978;SDS011;67169;50.268;8.694;2023-11-21T03:06:07;10.93;;;4.90;;
77978;SDS011;67169;50.268;8.694;2023-11-21T03:08:33;13.63;;;4.82;;
77978;SDS011;67169;50.268;8.694;2023-11-21T03:11:00;12.52;;;4.97;;
77978;SDS011;67169;50.268;8.694;2023-11-21T03:13:28;11.52;;;5.50;;
77978;SDS011;67169;50.268;8.694;2023-11-21T03:15:55;15.43;;;5.72;;
77978;SDS011;67169;50.268;8.694;2023-11-21T03:25:41;8.90;;;4.32;;
77978;SDS011;67169;50.268;8.694;2023-11-21T03:28:08;8.32;;;4.68;;
77978;SDS011;67169;50.268;8.694;2023-11-21T03:30:35;14.48;;;5.43;;
77978;SDS011;67169;50.268;8.694;2023-11-21T03:33:03;13.38;;;5.30;;
77978;SDS011;67169;50.268;8.694;2023-11-21T03:35:29;12.05;;;4.82;;
77978;SDS011;67169;50.268;8.694;2023-11-21T03:37:56;12.13;;;5.22;;
77978;SDS011;67169;50.268;8.694;2023-11-21T03:40:23;14.00;;;6.10;;
77978;SDS011;67169;50.268;8.694;2023-11-21T03:42:49;10.77;;;4.93;;
77978;SDS011;67169;50.268;8.694;2023-11-21T03:45:16;11.57;;;5.30;;
77978;SDS011;67169;50.268;8.694;2023-11-21T03:47:43;17.25;;;6.32;;
77978;SDS011;67169;50.268;8.694;2023-11-21T03:50:11;9.35;;;5.35;;
77978;SDS011;67169;50.268;8.694;2023-11-21T03:55:04;11.05;;;5.15;;
77978;SDS011;67169;50.268;8.694;2023-11-21T03:57:31;14.90;;;5.20;;
77978;SDS011;67169;50.268;8.694;2023-11-21T03:59:57;11.55;;;5.10;;
77978;SDS011;67169;50.268;8.694;2023-11-21T04:02:24;12.40;;;6.03;;
77978;SDS011;67169;50.268;8.694;2023-11-21T04:04:52;11.77;;;4.95;;
77978;SDS011;67169;50.268;8.694;2023-11-21T04:07:20;12.18;;;5.38;;
77978;SDS011;67169;50.268;8.694;2023-11-21T04:09:47;9.70;;;4.55;;
77978;SDS011;67169;50.268;8.694;2023-11-21T04:12:13;9.80;;;5.07;;
77978;SDS011;67169;50.268;8.694;2023-11-21T04:14:40;11.00;;;5.75;;
77978;SDS011;67169;50.268;8.694;2023-11-21T04:17:06;9.98;;;4.90;;
77978;SDS011;67169;50.268;8.694;2023-11-21T04:19:34;10.05;;;4.68;;
77978;SDS011;67169;50.268;8.694;2023-11-21T04:22:01;11.65;;;5.70;;
77978;SDS011;67169;50.268;8.694;2023-11-21T04:24:29;13.95;;;5.18;;
77978;SDS011;67169;50.268;8.694;2023-11-21T04:31:48;11.10;;;5.72;;
77978;SDS011;67169;50.268;8.694;2023-11-21T04:34:15;14.98;;;5.88;;
77978;SDS011;67169;50.268;8.694;2023-11-21T04:36:42;10.48;;;3.92;;
77978;SDS011;67169;50.268;8.694;2023-11-21T04:39:09;15.57;;;6.43;;
77978;SDS011;67169;50.268;8.694;2023-11-21T04:41:37;12.07;;;5.47;;
77978;SDS011;67169;50.268;8.694;2023-11-21T04:44:05;11.32;;;4.90;;
77978;SDS011;67169;50.268;8.694;2023-11-21T04:46:31;10.35;;;5.00;;
77978;SDS011;67169;50.268;8.694;2023-11-21T04:48:58;9.80;;;4.78;;
77978;SDS011;67169;50.268;8.694;2023-11-21T04:51:25;9.07;;;4.05;;
77978;SDS011;67169;50.268;8.694;2023-11-21T04:53:52;7.05;;;3.55;;
77978;SDS011;67169;50.268;8.694;2023-11-21T04:56:19;5.18;;;2.55;;
77978;SDS011;67169;50.268;8.694;2023-11-21T04:58:47;5.72;;;2.45;;
77978;SDS011;67169;50.268;8.694;2023-11-21T05:01:13;7.40;;;2.45;;
77978;SDS011;67169;50.268;8.694;2023-11-21T05:03:40;3.17;;;1.88;;
77978;SDS011;67169;50.268;8.694;2023-11-21T05:06:09;4.57;;;1.77;;
77978;SDS011;67169;50.268;8.694;2023-11-21T05:08:35;2.85;;;1.20;;
77978;SDS011;67169;50.268;8.694;2023-11-21T05:11:03;2.67;;;1.50;;
77978;SDS011;67169;50.268;8.694;2023-11-21T05:13:29;4.15;;;1.85;;
77978;SDS011;67169;50.268;8.694;2023-11-21T05:15:59;3.40;;;1.55;;
77978;SDS011;67169;50.268;8.694;2023-11-21T05:18:29;2.75;;;1.60;;
77978;SDS011;67169;50.268;8.694;2023-11-21T05:20:55;4.88;;;1.70;;
77978;SDS011;67169;50.268;8.694;2023-11-21T05:23:22;1.38;;;1.20;;
77978;SDS011;67169;50.268;8.694;2023-11-21T05:25:49;2.60;;;1.10;;
77978;SDS011;67169;50.268;8.694;2023-11-21T05:28:16;3.17;;;1.02;;
77978;SDS011;67169;50.268;8.694;2023-11-21T05:30:43;2.17;;;1.23;;
77978;SDS011;67169;50.268;8.694;2023-11-21T05:33:11;2.97;;;1.27;;
77978;SDS011;67169;50.268;8.694;2023-11-21T05:35:38;2.60;;;1.10;;
77978;SDS011;67169;50.268;8.694;2023-11-21T05:38:04;1.48;;;1.02;;
77978;SDS011;67169;50.268;8.694;2023-11-21T05:40:31;1.35;;;0.82;;
77978;SDS011;67169;50.268;8.694;2023-11-21T05:42:58;1.33;;;1.10;;
77978;SDS011;67169;50.268;8.694;2023-11-21T05:45:24;1.73;;;0.98;;
77978;SDS011;67169;50.268;8.694;2023-11-21T05:47:51;2.15;;;0.80;;
77978;SDS011;67169;50.268;8.694;2023-11-21T05:50:19;2.17;;;1.10;;
77978;SDS011;67169;50.268;8.694;2023-11-21T05:52:46;1.23;;;0.82;;
77978;SDS011;67169;50.268;8.694;2023-11-21T05:55:13;5.20;;;1.63;;
77978;SDS011;67169;50.268;8.694;2023-11-21T05:57:40;3.40;;;1.88;;
77978;SDS011;67169;50.268;8.694;2023-11-21T06:00:08;3.22;;;1.45;;
77978;SDS011;67169;50.268;8.694;2023-11-21T06:02:40;4.13;;;1.83;;
77978;SDS011;67169;50.268;8.694;2023-11-21T06:05:07;3.78;;;1.50;;
77978;SDS011;67169;50.268;8.694;2023-11-21T06:07:36;4.25;;;2.22;;
77978;SDS011;67169;50.268;8.694;2023-11-21T06:10:04;3.80;;;1.10;;
77978;SDS011;67169;50.268;8.694;2023-11-21T06:12:34;2.20;;;1.55;;
77978;SDS011;67169;50.268;8.694;2023-11-21T06:15:01;2.83;;;1.88;;
77978;SDS011;67169;50.268;8.694;2023-11-21T06:17:30;3.30;;;1.75;;
77978;SDS011;67169;50.268;8.694;2023-11-21T06:19:57;3.30;;;1.73;;
77978;SDS011;67169;50.268;8.694;2023-11-21T06:22:24;4.03;;;1.80;;
77978;SDS011;67169;50.268;8.694;2023-11-21T06:24:52;3.45;;;2.00;;
77978;SDS011;67169;50.268;8.694;2023-11-21T06:27:18;3.75;;;2.20;;
77978;SDS011;67169;50.268;8.694;2023-11-21T06:29:45;3.30;;;2.08;;
77978;SDS011;67169;50.268;8.694;2023-11-21T06:32:12;5.63;;;2.60;;
77978;SDS011;67169;50.268;8.694;2023-11-21T06:34:41;5.88;;;3.17;;
77978;SDS011;67169;50.268;8.694;2023-11-21T06:37:08;3.80;;;2.00;;
77978;SDS011;67169;50.268;8.694;2023-11-21T06:39:34;5.53;;;2.45;;
77978;SDS011;67169;50.268;8.694;2023-11-21T06:42:02;3.05;;;1.60;;
77978;SDS011;67169;50.268;8.694;2023-11-21T06:44:29;3.08;;;2.10;;
77978;SDS011;67169;50.268;8.694;2023-11-21T06:46:56;5.93;;;2.45;;
77978;SDS011;67169;50.268;8.694;2023-11-21T06:49:22;3.40;;;1.83;;
77978;SDS011;67169;50.268;8.694;2023-11-21T06:51:49;5.70;;;2.38;;
77978;SDS011;67169;50.268;8.694;2023-11-21T06:54:15;3.92;;;2.35;;
77978;SDS011;67169;50.268;8.694;2023-11-21T06:56:42;4.55;;;2.15;;
77978;SDS011;67169;50.268;8.694;2023-11-21T06:59:10;5.43;;;2.72;;
77978;SDS011;67169;50.268;8.694;2023-11-21T07:04:04;4.15;;;2.05;;
77978;SDS011;67169;50.268;8.694;2023-11-21T07:11:57;5.93;;;2.60;;
77978;SDS011;67169;50.268;8.694;2023-11-21T07:14:27;6.18;;;2.78;;
77978;SDS011;67169;50.268;8.694;2023-11-21T07:16:57;3.67;;;2.42;;
77978;SDS011;67169;50.268;8.694;2023-11-21T07:19:23;2.75;;;1.95;;
77978;SDS011;67169;50.268;8.694;2023-11-21T07:21:54;4.68;;;2.10;;
77978;SDS011;67169;50.268;8.694;2023-11-21T07:24:24;3.92;;;2.08;;
77978;SDS011;67169;50.268;8.694;2023-11-21T07:26:51;3.72;;;2.45;;
77978;SDS011;67169;50.268;8.694;2023-11-21T07:29:21;4.50;;;2.20;;
77978;SDS011;67169;50.268;8.694;2023-11-21T07:31:53;3.38;;;1.73;;
77978;SDS011;67169;50.268;8.694;2023-11-21T07:34:19;3.05;;;2.28;;
77978;SDS011;67169;50.268;8.694;2023-11-21T07:36:48;2.95;;;2.08;;
77978;SDS011;67169;50.268;8.694;2023-11-21T07:39:15;5.90;;;2.88;;
77978;SDS011;67169;50.268;8.694;2023-11-21T07:41:41;3.83;;;2.35;;
77978;SDS011;67169;50.268;8.694;2023-11-21T07:44:14;3.30;;;2.10;;
77978;SDS011;67169;50.268;8.694;2023-11-21T07:46:42;4.68;;;2.10;;
77978;SDS011;67169;50.268;8.694;2023-11-21T07:49:10;3.05;;;1.55;;
77978;SDS011;67169;50.268;8.694;2023-11-21T07:51:40;6.82;;;2.35;;
77978;SDS011;67169;50.268;8.694;2023-11-21T07:54:08;5.18;;;2.33;;
77978;SDS011;67169;50.268;8.694;2023-11-21T07:56:35;6.70;;;2.60;;
77978;SDS011;67169;50.268;8.694;2023-11-21T07:59:01;3.90;;;2.10;;
77978;SDS011;67169;50.268;8.694;2023-11-21T08:01:30;5.38;;;2.17;;
77978;SDS011;67169;50.268;8.694;2023-11-21T08:03:59;3.20;;;2.22;;
77978;SDS011;67169;50.268;8.694;2023-11-21T08:06:29;3.00;;;1.60;;
77978;SDS011;67169;50.268;8.694;2023-11-21T08:08:57;5.03;;;3.25;;
77978;SDS011;67169;50.268;8.694;2023-11-21T08:11:26;3.63;;;2.80;;
77978;SDS011;67169;50.268;8.694;2023-11-21T08:13:57;5.20;;;2.10;;
77978;SDS011;67169;50.268;8.694;2023-11-21T08:16:24;5.20;;;2.10;;
77978;SDS011;67169;50.268;8.694;2023-11-21T08:18:50;3.63;;;1.92;;
77978;SDS011;67169;50.268;8.694;2023-11-21T08:21:17;2.60;;;1.75;;
77978;SDS011;67169;50.268;8.694;2023-11-21T08:23:45;2.95;;;1.80;;
77978;SDS011;67169;50.268;8.694;2023-11-21T08:26:12;3.00;;;2.03;;
77978;SDS011;67169;50.268;8.694;2023-11-21T08:28:42;3.13;;;1.85;;
77978;SDS011;67169;50.268;8.694;2023-11-21T08:31:08;3.85;;;1.88;;
77978;SDS011;67169;50.268;8.694;2023-11-21T08:33:36;7.07;;;2.20;;
77978;SDS011;67169;50.268;8.694;2023-11-21T08:36:06;3.17;;;2.38;;
77978;SDS011;67169;50.268;8.694;2023-11-21T08:38:33;3.83;;;2.35;;
77978;SDS011;67169;50.268;8.694;2023-11-21T08:41:04;4.75;;;3.03;;
77978;SDS011;67169;50.268;8.694;2023-11-21T08:43:32;6.03;;;2.40;;
77978;SDS011;67169;50.268;8.694;2023-11-21T08:45:59;3.72;;;2.33;;
77978;SDS011;67169;50.268;8.694;2023-11-21T08:48:26;3.97;;;1.90;;
77978;SDS011;67169;50.268;8.694;2023-11-21T08:50:54;5.47;;;1.70;;
77978;SDS011;67169;50.268;8.694;2023-11-21T08:53:21;4.47;;;2.00;;
77978;SDS011;67169;50.268;8.694;2023-11-21T08:55:48;4.93;;;2.10;;
77978;SDS011;67169;50.268;8.694;2023-11-21T08:58:16;2.83;;;1.70;;
77978;SDS011;67169;50.268;8.694;2023-11-21T09:00:43;4.05;;;1.73;;
77978;SDS011;67169;50.268;8.694;2023-11-21T09:03:11;4.63;;;1.73;;
77978;SDS011;67169;50.268;8.694;2023-11-21T09:05:38;3.20;;;1.63;;
77978;SDS011;67169;50.268;8.694;2023-11-21T09:08:05;2.92;;;1.75;;
77978;SDS011;67169;50.268;8.694;2023-11-21T09:10:31;2.75;;;2.00;;
77978;SDS011;67169;50.268;8.694;2023-11-21T09:13:00;4.75;;;1.95;;
77978;SDS011;67169;50.268;8.694;2023-11-21T09:15:29;3.97;;;1.45;;
77978;SDS011;67169;50.268;8.694;2023-11-21T09:17:56;3.28;;;1.77;;
77978;SDS011;67169;50.268;8.694;2023-11-21T09:20:22;4.40;;;1.55;;
77978;SDS011;67169;50.268;8.694;2023-11-21T09:22:49;4.10;;;1.52;;
77978;SDS011;67169;50.268;8.694;2023-11-21T09:25:15;2.08;;;1.23;;
77978;SDS011;67169;50.268;8.694;2023-11-21T09:27:42;3.28;;;1.80;;
77978;SDS011;67169;50.268;8.694;2023-11-21T09:30:09;2.72;;;1.50;;
77978;SDS011;67169;50.268;8.694;2023-11-21T09:32:40;4.18;;;1.70;;
77978;SDS011;67169;50.268;8.694;2023-11-21T09:35:10;4.82;;;1.85;;
77978;SDS011;67169;50.268;8.694;2023-11-21T09:37:39;3.75;;;1.83;;
77978;SDS011;67169;50.268;8.694;2023-11-21T09:40:06;2.10;;;1.52;;
77978;SDS011;67169;50.268;8.694;2023-11-21T09:42:39;2.35;;;1.70;;
77978;SDS011;67169;50.268;8.694;2023-11-21T09:45:10;5.30;;;2.90;;
77978;SDS011;67169;50.268;8.694;2023-11-21T09:47:46;3.42;;;1.85;;
77978;SDS011;67169;50.268;8.694;2023-11-21T09:50:13;3.65;;;2.15;;
77978;SDS011;67169;50.268;8.694;2023-11-21T09:52:48;3.97;;;1.70;;
77978;SDS011;67169;50.268;8.694;2023-11-21T09:55:20;4.70;;;2.25;;
77978;SDS011;67169;50.268;8.694;2023-11-21T09:57:48;3.83;;;1.90;;
77978;SDS011;67169;50.268;8.694;2023-11-21T10:00:15;5.60;;;2.17;;
77978;SDS011;67169;50.268;8.694;2023-11-21T10:02:43;2.53;;;1.70;;
77978;SDS011;67169;50.268;8.694;2023-11-21T10:07:39;3.65;;;2.22;;
77978;SDS011;67169;50.268;8.694;2023-11-21T10:10:06;4.90;;;2.38;;
77978;SDS011;67169;50.268;8.694;2023-11-21T10:12:35;3.70;;;2.38;;
77978;SDS011;67169;50.268;8.694;2023-11-21T10:15:03;2.85;;;2.50;;
77978;SDS011;67169;50.268;8.694;2023-11-21T10:17:34;4.28;;;2.38;;
77978;SDS011;67169;50.268;8.694;2023-11-21T10:22:39;5.15;;;2.50;;
77978;SDS011;67169;50.268;8.694;2023-11-21T10:25:07;6.00;;;2.85;;
77978;SDS011;67169;50.268;8.694;2023-11-21T10:27:36;3.50;;;2.30;;
77978;SDS011;67169;50.268;8.694;2023-11-21T10:30:16;3.40;;;2.13;;
77978;SDS011;67169;50.268;8.694;2023-11-21T10:32:43;3.90;;;2.03;;
77978;SDS011;67169;50.268;8.694;2023-11-21T10:35:11;3.33;;;2.33;;
77978;SDS011;67169;50.268;8.694;2023-11-21T10:37:39;4.25;;;2.35;;
77978;SDS011;67169;50.268;8.694;2023-11-21T10:40:07;4.88;;;2.35;;
77978;SDS011;67169;50.268;8.694;2023-11-21T10:42:37;4.32;;;2.25;;
77978;SDS011;67169;50.268;8.694;2023-11-21T10:45:03;2.55;;;2.25;;
77978;SDS011;67169;50.268;8.694;2023-11-21T10:47:35;6.03;;;2.38;;
77978;SDS011;67169;50.268;8.694;2023-11-21T10:50:02;3.60;;;2.20;;
77978;SDS011;67169;50.268;8.694;2023-11-21T10:52:30;4.22;;;2.78;;
77978;SDS011;67169;50.268;8.694;2023-11-21T10:54:59;6.30;;;2.67;;
77978;SDS011;67169;50.268;8.694;2023-11-21T10:57:28;4.53;;;2.47;;
77978;SDS011;67169;50.268;8.694;2023-11-21T10:59:56;5.88;;;2.80;;
77978;SDS011;67169;50.268;8.694;2023-11-21T11:02:24;6.28;;;2.45;;
77978;SDS011;67169;50.268;8.694;2023-11-21T11:04:53;3.00;;;2.05;;
77978;SDS011;67169;50.268;8.694;2023-11-21T11:07:21;4.05;;;2.25;;
77978;SDS011;67169;50.268;8.694;2023-11-21T11:09:51;3.03;;;2.00;;
77978;SDS011;67169;50.268;8.694;2023-11-21T11:12:20;6.38;;;2.35;;
77978;SDS011;67169;50.268;8.694;2023-11-21T11:14:46;5.40;;;2.40;;
77978;SDS011;67169;50.268;8.694;2023-11-21T11:19:41;5.13;;;2.65;;
77978;SDS011;67169;50.268;8.694;2023-11-21T11:22:09;4.50;;;2.00;;
77978;SDS011;67169;50.268;8.694;2023-11-21T11:25:06;4.03;;;1.90;;
77978;SDS011;67169;50.268;8.694;2023-11-21T11:27:47;5.65;;;2.42;;
77978;SDS011;67169;50.268;8.694;2023-11-21T11:30:23;3.13;;;2.17;;
77978;SDS011;67169;50.268;8.694;2023-11-21T11:33:04;6.00;;;2.42;;
77978;SDS011;67169;50.268;8.694;2023-11-21T11:35:38;5.32;;;2.63;;
77978;SDS011;67169;50.268;8.694;2023-11-21T11:38:12;8.00;;;2.35;;
77978;SDS011;67169;50.268;8.694;2023-11-21T11:40:39;2.72;;;2.08;;
77978;SDS011;67169;50.268;8.694;2023-11-21T11:43:08;3.25;;;1.80;;
77978;SDS011;67169;50.268;8.694;2023-11-21T11:45:35;1.95;;;1.55;;
77978;SDS011;67169;50.268;8.694;2023-11-21T11:48:06;7.10;;;2.03;;
77978;SDS011;67169;50.268;8.694;2023-11-21T11:50:33;6.60;;;2.30;;
77978;SDS011;67169;50.268;8.694;2023-11-21T11:53:11;5.28;;;2.00;;
77978;SDS011;67169;50.268;8.694;2023-11-21T11:55:39;3.78;;;1.77;;
77978;SDS011;67169;50.268;8.694;2023-11-21T11:58:06;5.53;;;1.70;;
77978;SDS011;67169;50.268;8.694;2023-11-21T12:00:35;3.42;;;2.35;;
77978;SDS011;67169;50.268;8.694;2023-11-21T12:03:06;3.85;;;1.80;;
77978;SDS011;67169;50.268;8.694;2023-11-21T12:05:34;3.70;;;1.73;;
77978;SDS011;67169;50.268;8.694;2023-11-21T12:08:04;2.42;;;1.90;;
77978;SDS011;67169;50.268;8.694;2023-11-21T12:10:33;5.43;;;2.60;;
77978;SDS011;67169;50.268;8.694;2023-11-21T12:13:02;2.42;;;1.90;;
77978;SDS011;67169;50.268;8.694;2023-11-21T12:15:34;4.82;;;2.47;;
77978;SDS011;67169;50.268;8.694;2023-11-21T12:18:01;2.38;;;1.58;;
77978;SDS011;67169;50.268;8.694;2023-11-21T12:20:29;3.95;;;2.10;;
77978;SDS011;67169;50.268;8.694;2023-11-21T12:22:57;6.55;;;2.13;;
77978;SDS011;67169;50.268;8.694;2023-11-21T12:25:25;2.95;;;2.15;;
77978;SDS011;67169;50.268;8.694;2023-11-21T12:27:54;5.35;;;1.95;;
77978;SDS011;67169;50.268;8.694;2023-11-21T12:30:22;5.53;;;1.98;;
77978;SDS011;67169;50.268;8.694;2023-11-21T12:32:54;4.10;;;1.98;;
77978;SDS011;67169;50.268;8.694;2023-11-21T12:35:22;5.05;;;2.08;;
77978;SDS011;67169;50.268;8.694;2023-11-21T12:37:51;5.65;;;2.05;;
77978;SDS011;67169;50.268;8.694;2023-11-21T12:40:18;3.28;;;2.40;;
77978;SDS011;67169;50.268;8.694;2023-11-21T12:42:45;4.60;;;2.08;;
77978;SDS011;67169;50.268;8.694;2023-11-21T12:45:20;2.78;;;1.95;;
77978;SDS011;67169;50.268;8.694;2023-11-21T12:47:50;4.32;;;2.00;;
77978;SDS011;67169;50.268;8.694;2023-11-21T12:50:23;2.47;;;1.75;;
77978;SDS011;67169;50.268;8.694;2023-11-21T12:52:53;4.38;;;2.30;;
77978;SDS011;67169;50.268;8.694;2023-11-21T12:55:23;5.07;;;2.00;;
77978;SDS011;67169;50.268;8.694;2023-11-21T12:57:51;5.38;;;2.53;;
77978;SDS011;67169;50.268;8.694;2023-11-21T13:00:20;5.25;;;2.22;;
77978;SDS011;67169;50.268;8.694;2023-11-21T13:02:55;3.97;;;2.08;;
77978;SDS011;67169;50.268;8.694;2023-11-21T13:05:26;5.65;;;2.15;;
77978;SDS011;67169;50.268;8.694;2023-11-21T13:07:53;4.82;;;2.10;;
77978;SDS011;67169;50.268;8.694;2023-11-21T13:10:22;6.07;;;2.10;;
77978;SDS011;67169;50.268;8.694;2023-11-21T13:12:51;4.20;;;2.40;;
77978;SDS011;67169;50.268;8.694;2023-11-21T13:15:20;5.70;;;2.13;;
77978;SDS011;67169;50.268;8.694;2023-11-21T13:17:47;2.40;;;1.90;;
77978;SDS011;67169;50.268;8.694;2023-11-21T13:20:15;5.22;;;2.38;;
77978;SDS011;67169;50.268;8.694;2023-11-21T13:22:47;3.22;;;1.88;;
77978;SDS011;67169;50.268;8.694;2023-11-21T13:25:16;2.78;;;1.95;;
77978;SDS011;67169;50.268;8.694;2023-11-21T13:27:44;4.22;;;2.10;;
77978;SDS011;67169;50.268;8.694;2023-11-21T13:30:12;2.85;;;2.10;;
77978;SDS011;67169;50.268;8.694;2023-11-21T13:32:42;5.25;;;2.35;;
77978;SDS011;67169;50.268;8.694;2023-11-21T13:35:09;6.75;;;2.92;;
77978;SDS011;67169;50.268;8.694;2023-11-21T13:37:48;5.38;;;2.35;;
77978;SDS011;67169;50.268;8.694;2023-11-21T13:40:19;4.05;;;2.38;;
77978;SDS011;67169;50.268;8.694;2023-11-21T13:42:47;8.65;;;3.15;;
77978;SDS011;67169;50.268;8.694;2023-11-21T13:45:18;2.97;;;2.35;;
77978;SDS011;67169;50.268;8.694;2023-11-21T13:47:45;3.67;;;2.13;;
77978;SDS011;67169;50.268;8.694;2023-11-21T13:50:12;5.55;;;2.53;;
77978;SDS011;67169;50.268;8.694;2023-11-21T13:52:42;4.03;;;1.88;;
77978;SDS011;67169;50.268;8.694;2023-11-21T13:55:11;7.13;;;2.45;;
77978;SDS011;67169;50.268;8.694;2023-11-21T13:57:40;5.40;;;2.60;;
77978;SDS011;67169;50.268;8.694;2023-11-21T14:00:10;6.60;;;2.33;;
77978;SDS011;67169;50.268;8.694;2023-11-21T14:02:57;4.45;;;2.22;;
77978;SDS011;67169;50.268;8.694;2023-11-21T14:07:54;3.17;;;2.30;;
77978;SDS011;67169;50.268;8.694;2023-11-21T14:10:28;3.17;;;2.42;;
77978;SDS011;67169;50.268;8.694;2023-11-21T14:13:02;3.75;;;2.65;;
77978;SDS011;67169;50.268;8.694;2023-11-21T14:15:29;2.95;;;1.88;;
77978;SDS011;67169;50.268;8.694;2023-11-21T14:17:58;2.10;;;1.63;;
77978;SDS011;67169;50.268;8.694;2023-11-21T14:20:25;5.90;;;2.55;;
77978;SDS011;67169;50.268;8.694;2023-11-21T14:22:51;2.78;;;2.15;;
77978;SDS011;67169;50.268;8.694;2023-11-21T14:25:18;7.03;;;1.98;;
77978;SDS011;67169;50.268;8.694;2023-11-21T14:27:46;5.78;;;2.00;;
77978;SDS011;67169;50.268;8.694;2023-11-21T14:30:13;4.15;;;2.20;;
77978;SDS011;67169;50.268;8.694;2023-11-21T14:32:43;3.75;;;2.92;;
77978;SDS011;67169;50.268;8.694;2023-11-21T14:35:09;5.20;;;2.42;;
77978;SDS011;67169;50.268;8.694;2023-11-21T14:37:36;5.63;;;2.08;;
77978;SDS011;67169;50.268;8.694;2023-11-21T14:40:03;4.53;;;2.50;;
77978;SDS011;67169;50.268;8.694;2023-11-21T14:42:32;4.10;;;2.53;;
77978;SDS011;67169;50.268;8.694;2023-11-21T14:45:06;4.15;;;2.65;;
77978;SDS011;67169;50.268;8.694;2023-11-21T14:47:33;9.70;;;2.60;;
77978;SDS011;67169;50.268;8.694;2023-11-21T14:50:00;3.85;;;2.92;;
77978;SDS011;67169;50.268;8.694;2023-11-21T14:52:47;4.60;;;2.17;;
77978;SDS011;67169;50.268;8.694;2023-11-21T14:55:20;3.47;;;2.28;;
77978;SDS011;67169;50.268;8.694;2023-11-21T14:57:56;6.15;;;2.53;;
77978;SDS011;67169;50.268;8.694;2023-11-21T15:00:29;3.53;;;2.25;;
77978;SDS011;67169;50.268;8.694;2023-11-21T15:03:08;3.85;;;2.15;;
77978;SDS011;67169;50.268;8.694;2023-11-21T15:05:36;3.33;;;2.30;;
77978;SDS011;67169;50.268;8.694;2023-11-21T15:08:03;4.68;;;1.60;;
77978;SDS011;67169;50.268;8.694;2023-11-21T15:10:46;3.22;;;1.88;;
77978;SDS011;67169;50.268;8.694;2023-11-21T15:13:17;4.60;;;1.70;;
77978;SDS011;67169;50.268;8.694;2023-11-21T15:15:46;1.17;;;1.08;;
77978;SDS011;67169;50.268;8.694;2023-11-21T15:18:12;4.15;;;1.52;;
77978;SDS011;67169;50.268;8.694;2023-11-21T15:20:39;1.67;;;1.40;;
77978;SDS011;67169;50.268;8.694;2023-11-21T15:23:06;2.45;;;1.17;;
77978;SDS011;67169;50.268;8.694;2023-11-21T15:25:33;2.25;;;1.52;;
77978;SDS011;67169;50.268;8.694;2023-11-21T15:28:00;4.22;;;1.90;;
77978;SDS011;67169;50.268;8.694;2023-11-21T15:30:27;3.22;;;1.75;;
77978;SDS011;67169;50.268;8.694;2023-11-21T15:32:58;2.78;;;1.35;;
77978;SDS011;67169;50.268;8.694;2023-11-21T15:35:25;3.97;;;1.73;;
77978;SDS011;67169;50.268;8.694;2023-11-21T15:37:53;3.58;;;1.98;;
77978;SDS011;67169;50.268;8.694;2023-11-21T15:40:22;2.40;;;1.60;;
77978;SDS011;67169;50.268;8.694;2023-11-21T15:42:49;2.15;;;1.77;;
77978;SDS011;67169;50.268;8.694;2023-11-21T15:45:15;5.07;;;2.10;;
77978;SDS011;67169;50.268;8.694;2023-11-21T15:47:46;3.35;;;1.67;;
77978;SDS011;67169;50.268;8.694;2023-11-21T15:50:14;3.95;;;2.25;;